createdAt,value
2019-01-03T00:00:51.793Z,66.60
2019-01-03T00:03:24.653Z,66.30
2019-01-03T00:05:55.912Z,66.20
2019-01-03T00:08:27.967Z,66.10
2019-01-03T00:10:59.442Z,66.30
2019-01-03T00:13:46.925Z,66.40
2019-01-03T00:16:21.019Z,66.60
2019-01-03T00:18:54.930Z,66.70
2019-01-03T00:21:28.954Z,67.10
2019-01-03T00:24:00.523Z,67.40
2019-01-03T00:26:53.575Z,67.50
2019-01-03T00:29:23.524Z,67.70
2019-01-03T00:31:55.287Z,67.80
2019-01-03T00:34:44.472Z,67.90
2019-01-03T00:37:21.711Z,68.10
2019-01-03T00:39:53.061Z,68.40
2019-01-03T00:42:40.223Z,68.60
2019-01-03T00:45:23.242Z,68.90
2019-01-03T00:48:10.773Z,69.10
2019-01-03T00:50:53.817Z,69.10
2019-01-03T00:53:36.877Z,69.10
2019-01-03T00:56:20.159Z,69.10
2019-01-03T00:59:03.457Z,69.30
2019-01-03T01:01:52.678Z,69.30
2019-01-03T01:04:32.813Z,69.30
2019-01-03T01:07:04.097Z,69.00
2019-01-03T01:09:50.459Z,68.40
2019-01-03T01:12:21.718Z,67.90
2019-01-03T01:14:58.489Z,68.00
2019-01-03T01:17:41.731Z,68.00
2019-01-03T01:20:27.628Z,67.80
2019-01-03T01:23:01.414Z,67.80
2019-01-03T01:25:32.664Z,67.80
2019-01-03T01:28:21.760Z,67.70
2019-01-03T01:30:53.029Z,67.80
2019-01-03T01:33:42.198Z,67.70
2019-01-03T01:36:29.738Z,67.70
2019-01-03T01:39:00.988Z,68.00
2019-01-03T01:41:35.216Z,68.10
2019-01-03T01:44:22.818Z,68.10
2019-01-03T01:46:54.165Z,68.00
2019-01-03T01:49:25.369Z,68.20
2019-01-03T01:51:59.240Z,68.20
2019-01-03T01:54:46.384Z,68.00
2019-01-03T01:57:23.651Z,68.00
2019-01-03T02:00:10.756Z,68.00
2019-01-03T02:02:47.712Z,68.10
2019-01-03T02:05:21.489Z,68.10
2019-01-03T02:08:07.666Z,67.50
2019-01-03T02:10:57.265Z,67.80
2019-01-03T02:13:44.550Z,67.90
2019-01-03T02:16:18.330Z,67.50
2019-01-03T02:18:55.113Z,67.00
2019-01-03T02:21:41.466Z,67.40
2019-01-03T02:24:12.689Z,67.50
2019-01-03T02:27:00.149Z,67.20
2019-01-03T02:29:42.992Z,67.40
2019-01-03T02:32:30.153Z,67.60
2019-01-03T02:35:13.440Z,67.60
2019-01-03T02:37:47.190Z,67.50
2019-01-03T02:40:18.778Z,67.40
2019-01-03T02:43:06.366Z,67.30
2019-01-03T02:45:37.618Z,67.00
2019-01-03T02:48:24.995Z,67.10
2019-01-03T02:51:08.148Z,67.30
2019-01-03T02:53:55.668Z,67.30
2019-01-03T02:56:29.447Z,67.50
2019-01-03T02:59:03.865Z,67.30
2019-01-03T03:01:52.106Z,67.60
2019-01-03T03:04:26.382Z,67.40
2019-01-03T03:06:57.809Z,67.20
2019-01-03T03:09:34.851Z,67.40
2019-01-03T03:12:09.001Z,67.80
2019-01-03T03:14:43.026Z,67.80
2019-01-03T03:17:14.338Z,67.50
2019-01-03T03:19:45.604Z,67.40
2019-01-03T03:22:19.798Z,67.30
2019-01-03T03:24:51.016Z,67.60
2019-01-03T03:27:22.627Z,67.60
2019-01-03T03:30:08.414Z,67.60
2019-01-03T03:32:54.411Z,68.00
2019-01-03T03:35:37.561Z,68.00
2019-01-03T03:38:25.473Z,67.90
2019-01-03T03:41:08.636Z,67.90
2019-01-03T03:43:46.054Z,68.10
2019-01-03T03:46:23.269Z,67.90
2019-01-03T03:49:12.654Z,67.70
2019-01-03T03:51:58.985Z,67.60
2019-01-03T03:54:30.236Z,67.80
2019-01-03T03:57:04.922Z,67.90
2019-01-03T03:59:42.110Z,67.80
2019-01-03T04:02:13.522Z,67.90
2019-01-03T04:05:00.649Z,67.80
2019-01-03T04:07:34.435Z,68.00
2019-01-03T04:10:22.729Z,68.10
2019-01-03T04:12:56.746Z,68.00
2019-01-03T04:15:45.867Z,67.90
2019-01-03T04:18:31.900Z,68.10
2019-01-03T04:21:08.653Z,68.10
2019-01-03T04:23:56.229Z,68.10
2019-01-03T04:26:45.378Z,68.00
2019-01-03T04:29:32.745Z,68.20
2019-01-03T04:32:16.022Z,68.00
2019-01-03T04:34:52.962Z,67.60
2019-01-03T04:37:30.106Z,67.70
2019-01-03T04:40:04.281Z,67.80
2019-01-03T04:42:47.108Z,67.90
2019-01-03T04:45:24.384Z,67.90
2019-01-03T04:47:58.246Z,67.90
2019-01-03T04:50:35.558Z,67.90
2019-01-03T04:53:15.872Z,68.10
2019-01-03T04:55:47.228Z,68.20
2019-01-03T04:58:18.490Z,68.40
2019-01-03T05:01:05.517Z,68.50
2019-01-03T05:03:37.033Z,68.60
2019-01-03T05:06:24.446Z,68.50
2019-01-03T05:08:58.298Z,68.10
2019-01-03T05:11:39.425Z,67.80
2019-01-03T05:14:13.064Z,67.80
2019-01-03T05:17:00.488Z,68.00
2019-01-03T05:19:37.462Z,67.90
2019-01-03T05:22:14.638Z,67.90
2019-01-03T05:24:48.568Z,68.10
2019-01-03T05:27:35.905Z,68.10
2019-01-03T05:30:08.451Z,68.10
2019-01-03T05:32:55.906Z,68.10
2019-01-03T05:35:43.403Z,68.30
2019-01-03T05:38:17.479Z,68.60
2019-01-03T05:40:54.906Z,68.90
2019-01-03T05:43:28.826Z,69.10
2019-01-03T05:46:16.174Z,69.50
2019-01-03T05:48:56.085Z,69.40
2019-01-03T05:51:45.437Z,69.30
2019-01-03T05:54:16.850Z,69.50
2019-01-03T05:57:06.123Z,69.50
2019-01-03T05:59:40.040Z,69.50
2019-01-03T06:02:14.018Z,69.20
2019-01-03T06:04:45.370Z,69.40
2019-01-03T06:07:32.754Z,69.50
2019-01-03T06:10:21.830Z,69.40
2019-01-03T06:13:09.489Z,69.30
2019-01-03T06:18:44.693Z,69.60
2019-01-03T06:21:16.158Z,69.60
2019-01-03T06:23:47.498Z,69.30
2019-01-03T06:26:24.653Z,69.50
2019-01-03T06:29:07.550Z,69.80
2019-01-03T06:31:55.225Z,69.70
2019-01-03T06:34:29.014Z,69.50
2019-01-03T06:37:12.108Z,69.30
2019-01-03T06:39:43.770Z,69.10
2019-01-03T06:42:17.634Z,69.00
2019-01-03T06:45:05.288Z,69.10
2019-01-03T06:47:52.541Z,69.10
2019-01-03T06:50:23.876Z,69.10
2019-01-03T06:52:55.129Z,69.20
2019-01-03T06:55:29.733Z,69.10
2019-01-03T06:58:03.558Z,69.10
2019-01-03T07:03:32.409Z,69.00
2019-01-03T07:06:07.034Z,69.00
2019-01-03T07:08:54.992Z,68.90
2019-01-03T07:11:30.039Z,69.00
2019-01-03T07:14:01.551Z,68.60
2019-01-03T07:16:38.498Z,68.40
2019-01-03T07:19:28.007Z,68.60
2019-01-03T07:22:11.689Z,68.40
2019-01-03T07:24:46.258Z,68.40
2019-01-03T07:27:21.138Z,68.70
2019-01-03T07:30:04.211Z,68.70
2019-01-03T07:32:44.602Z,68.50
2019-01-03T07:35:22.725Z,68.70
2019-01-03T07:38:10.557Z,68.70
2019-01-03T07:40:58.386Z,68.80
2019-01-03T07:43:35.837Z,68.80
2019-01-03T07:46:07.125Z,69.00
2019-01-03T07:51:27.622Z,68.70
2019-01-03T07:54:02.057Z,69.40
2019-01-03T07:56:40.123Z,69.10
2019-01-03T07:59:17.570Z,68.90
2019-01-03T08:01:51.593Z,68.80
2019-01-03T08:04:22.882Z,68.80
2019-01-03T08:07:10.201Z,68.90
2019-01-03T08:09:44.506Z,69.00
2019-01-03T08:12:32.090Z,69.10
2019-01-03T08:15:18.186Z,69.00
2019-01-03T08:17:49.508Z,69.00
2019-01-03T08:20:39.841Z,68.70
2019-01-03T08:23:16.205Z,69.30
2019-01-03T08:26:06.294Z,68.20
2019-01-03T08:28:53.560Z,68.30
2019-01-03T08:31:27.621Z,68.20
2019-01-03T08:34:17.069Z,68.00
2019-01-03T08:37:04.528Z,67.70
2019-01-03T08:39:47.614Z,67.60
2019-01-03T08:42:34.024Z,67.60
2019-01-03T08:45:21.788Z,67.60
2019-01-03T08:48:05.118Z,67.70
2019-01-03T08:50:42.086Z,67.90
2019-01-03T08:53:29.385Z,67.90
2019-01-03T08:56:01.344Z,67.60
2019-01-03T08:58:48.961Z,67.60
2019-01-03T09:01:26.185Z,67.50
2019-01-03T09:04:13.475Z,67.40
2019-01-03T09:06:44.726Z,67.40
2019-01-03T09:09:30.868Z,67.20
2019-01-03T09:12:02.154Z,67.10
2019-01-03T09:14:42.150Z,66.70
2019-01-03T09:17:25.237Z,66.50
2019-01-03T09:20:05.702Z,66.60
2019-01-03T09:22:53.004Z,66.50
2019-01-03T09:25:30.025Z,66.30
2019-01-03T09:28:17.490Z,66.40
2019-01-03T09:31:06.573Z,66.30
2019-01-03T09:33:41.453Z,66.30
2019-01-03T09:36:18.642Z,66.40
2019-01-03T09:39:05.145Z,66.50
2019-01-03T09:41:52.662Z,66.50
2019-01-03T09:44:40.017Z,66.20
2019-01-03T09:47:09.672Z,66.40
2019-01-03T09:49:39.554Z,66.70
2019-01-03T09:52:09.174Z,66.70
2019-01-03T09:54:38.866Z,66.60
2019-01-03T09:57:08.489Z,66.70
2019-01-03T09:59:38.945Z,66.70
2019-01-03T10:02:08.673Z,66.60
2019-01-03T10:04:39.001Z,66.30
2019-01-03T10:07:08.616Z,66.10
2019-01-03T10:09:38.569Z,65.90
2019-01-03T10:12:08.312Z,66.00
2019-01-03T10:14:38.030Z,66.20
2019-01-03T10:17:07.659Z,66.30
2019-01-03T10:19:38.107Z,66.10
2019-01-03T10:22:07.725Z,66.00
2019-01-03T10:24:37.523Z,66.10
2019-01-03T10:27:07.383Z,66.20
2019-01-03T10:29:37.175Z,66.30
2019-01-03T10:32:06.894Z,66.30
2019-01-03T10:34:36.512Z,66.30
2019-01-03T10:37:06.258Z,66.40
2019-01-03T10:39:36.656Z,66.10
2019-01-03T10:42:06.431Z,65.90
2019-01-03T10:44:36.112Z,65.30
2019-01-03T10:47:05.745Z,65.00
2019-01-03T10:49:35.526Z,64.90
2019-01-03T10:52:05.618Z,64.90
2019-01-03T10:54:35.232Z,65.00
2019-01-03T10:57:05.649Z,65.30
2019-01-03T10:59:35.362Z,65.60
2019-01-03T11:02:05.014Z,65.30
2019-01-03T11:04:34.653Z,65.40
2019-01-03T11:07:04.435Z,65.50
2019-01-03T11:09:35.030Z,65.80
2019-01-03T11:12:04.718Z,65.30
2019-01-03T11:14:34.379Z,65.50
2019-01-03T11:17:04.161Z,65.70
2019-01-03T11:19:33.856Z,65.50
2019-01-03T11:22:03.637Z,65.20
2019-01-03T11:24:33.411Z,65.00
2019-01-03T11:27:03.250Z,65.20
2019-01-03T11:29:32.929Z,65.00
2019-01-03T11:32:02.695Z,65.00
2019-01-03T11:34:32.472Z,65.10
2019-01-03T11:37:02.094Z,65.20
2019-01-03T11:39:31.798Z,65.30
2019-01-03T11:42:01.428Z,65.20
2019-01-03T11:44:31.053Z,65.20
2019-01-03T11:47:00.673Z,65.00
2019-01-03T11:49:30.532Z,64.90
2019-01-03T11:52:00.534Z,64.90
2019-01-03T11:54:30.245Z,64.80
2019-01-03T11:56:59.898Z,65.00
2019-01-03T11:59:29.553Z,65.00
2019-01-03T12:01:59.184Z,64.90
2019-01-03T12:04:28.797Z,64.70
2019-01-03T12:06:58.524Z,65.00
2019-01-03T12:09:28.143Z,64.90
2019-01-03T12:11:57.858Z,64.70
2019-01-03T12:14:27.486Z,64.50
2019-01-03T12:16:57.231Z,64.70
2019-01-03T12:19:26.909Z,64.90
2019-01-03T12:21:56.553Z,65.00
2019-01-03T12:24:30.609Z,64.90
2019-01-03T12:26:58.470Z,64.80
2019-01-03T12:29:28.825Z,64.00
2019-01-03T12:31:58.460Z,64.10
2019-01-03T12:34:28.304Z,63.70
2019-01-03T12:36:58.740Z,63.70
2019-01-03T12:39:30.031Z,64.00
2019-01-03T12:41:59.806Z,64.00
2019-01-03T12:44:29.557Z,63.80
2019-01-03T12:46:59.265Z,63.30
2019-01-03T12:49:29.163Z,62.90
2019-01-03T12:51:58.814Z,62.40
2019-01-03T12:54:28.537Z,62.20
2019-01-03T12:56:59.002Z,62.10
2019-01-03T12:59:28.786Z,62.50
2019-01-03T13:01:58.502Z,61.50
2019-01-03T13:04:28.380Z,61.30
2019-01-03T13:06:58.001Z,61.00
2019-01-03T13:09:28.408Z,60.70
2019-01-03T13:11:58.039Z,60.80
2019-01-03T13:14:27.764Z,60.90
2019-01-03T13:16:57.370Z,60.80
2019-01-03T13:19:27.254Z,60.70
2019-01-03T13:21:56.869Z,60.30
2019-01-03T13:24:26.561Z,60.10
2019-01-03T13:26:56.205Z,60.10
2019-01-03T13:29:26.056Z,60.40
2019-01-03T13:31:55.669Z,60.30
2019-01-03T13:34:25.294Z,60.00
2019-01-03T13:36:55.078Z,60.10
2019-01-03T13:39:24.830Z,60.40
2019-01-03T13:41:54.484Z,60.80
2019-01-03T13:44:24.202Z,61.00
2019-01-03T13:46:53.926Z,61.00
2019-01-03T13:49:23.537Z,61.00
2019-01-03T13:51:53.153Z,61.30
2019-01-03T13:54:23.008Z,61.30
2019-01-03T13:56:52.661Z,61.50
2019-01-03T13:59:22.429Z,61.80
2019-01-03T14:01:52.142Z,61.60
2019-01-03T14:04:21.984Z,61.40
2019-01-03T14:06:51.841Z,61.30
2019-01-03T14:09:21.469Z,61.40
2019-01-03T14:11:51.434Z,61.20
2019-01-03T14:14:21.285Z,60.60
2019-01-03T14:16:51.101Z,60.80
2019-01-03T14:19:20.838Z,61.10
2019-01-03T14:21:50.504Z,61.00
2019-01-03T14:24:20.227Z,61.20
2019-01-03T14:26:49.848Z,61.10
2019-01-03T14:29:19.466Z,61.40
2019-01-03T14:31:49.177Z,61.80
2019-01-03T14:34:19.690Z,61.80
2019-01-03T14:36:49.465Z,61.60
2019-01-03T14:39:19.183Z,61.40
2019-01-03T14:41:48.793Z,61.70
2019-01-03T14:44:19.191Z,61.90
2019-01-03T14:46:48.868Z,62.10
2019-01-03T14:49:18.488Z,62.10
2019-01-03T14:51:51.279Z,62.10
2019-01-03T14:54:21.088Z,62.20
2019-01-03T14:56:51.995Z,62.50
2019-01-03T14:59:21.729Z,62.60
2019-01-03T15:01:51.429Z,62.60
2019-01-03T15:04:21.125Z,63.30
2019-01-03T15:06:51.010Z,62.70
2019-01-03T15:09:20.654Z,62.80
2019-01-03T15:11:50.352Z,62.80
2019-01-03T15:14:19.979Z,63.00
2019-01-03T15:16:49.699Z,63.10
2019-01-03T15:19:19.356Z,63.10
2019-01-03T15:21:49.234Z,63.10
2019-01-03T15:24:18.996Z,63.20
2019-01-03T15:26:48.710Z,63.40
2019-01-03T15:29:18.389Z,63.40
2019-01-03T15:31:48.054Z,63.40
2019-01-03T15:34:17.701Z,63.60
2019-01-03T15:36:47.323Z,63.60
2019-01-03T15:39:16.902Z,63.80
2019-01-03T15:41:46.549Z,63.80
2019-01-03T15:44:16.328Z,64.20
2019-01-03T15:46:46.045Z,64.40
2019-01-03T15:49:15.693Z,64.40
2019-01-03T15:51:45.346Z,64.40
2019-01-03T15:54:15.130Z,64.50
2019-01-03T15:56:44.753Z,64.70
2019-01-03T15:59:15.071Z,65.00
2019-01-03T16:01:44.809Z,65.10
2019-01-03T16:04:14.498Z,65.20
2019-01-03T16:06:44.122Z,65.50
2019-01-03T16:09:13.746Z,65.60
2019-01-03T16:11:43.356Z,65.80
2019-01-03T16:14:12.993Z,65.90
2019-01-03T16:16:42.755Z,66.10
2019-01-03T16:19:13.181Z,66.20
2019-01-03T16:21:42.757Z,66.50
2019-01-03T16:24:12.349Z,66.80
2019-01-03T16:26:42.053Z,67.00
2019-01-03T16:29:12.442Z,67.10
2019-01-03T16:31:42.020Z,67.40
2019-01-03T16:34:11.677Z,67.50
2019-01-03T16:36:42.386Z,67.60
2019-01-03T16:39:12.204Z,67.90
2019-01-03T16:41:41.860Z,68.10
2019-01-03T16:44:11.620Z,68.10
2019-01-03T16:46:41.246Z,68.30
2019-01-03T16:49:10.825Z,68.50
2019-01-03T16:51:40.422Z,68.50
2019-01-03T16:54:10.340Z,68.70
2019-01-03T16:56:39.909Z,68.60
2019-01-03T16:59:09.597Z,68.70
2019-01-03T17:01:39.286Z,68.80
2019-01-03T17:04:08.867Z,68.90
2019-01-03T17:06:38.492Z,68.80
2019-01-03T17:09:08.279Z,68.80
2019-01-03T17:11:37.920Z,68.90
2019-01-03T17:14:08.507Z,69.00
2019-01-03T17:16:38.145Z,69.00
2019-01-03T17:19:07.731Z,69.10
2019-01-03T17:21:37.305Z,69.10
2019-01-03T17:24:06.933Z,69.40
2019-01-03T17:26:36.724Z,69.30
2019-01-03T17:29:06.301Z,69.40
2019-01-03T17:31:35.914Z,69.50
2019-01-03T17:34:05.609Z,69.60
2019-01-03T17:36:35.193Z,69.50
2019-01-03T17:39:05.644Z,69.70
2019-01-03T17:41:35.325Z,69.70
2019-01-03T17:44:05.902Z,69.70
2019-01-03T17:46:35.527Z,69.70
2019-01-03T17:49:05.170Z,69.80
2019-01-03T17:51:34.744Z,69.70
2019-01-03T17:54:04.373Z,69.70
2019-01-03T17:56:33.963Z,69.70
2019-01-03T17:59:03.553Z,69.80
2019-01-03T18:01:33.178Z,69.80
2019-01-03T18:04:03.714Z,69.80
2019-01-03T18:06:33.462Z,69.60
2019-01-03T18:09:03.618Z,69.60
2019-01-03T18:11:33.350Z,69.60
2019-01-03T18:14:02.969Z,69.50
2019-01-03T18:16:32.541Z,69.50
2019-01-03T18:19:02.126Z,69.60
2019-01-03T18:21:32.752Z,69.50
2019-01-03T18:24:02.338Z,69.60
2019-01-03T18:26:31.949Z,69.60
2019-01-03T18:29:01.573Z,69.70
2019-01-03T18:31:31.153Z,69.70
2019-01-03T18:34:01.165Z,69.70
2019-01-03T18:36:30.818Z,69.80
2019-01-03T18:39:00.421Z,69.80
2019-01-03T18:41:30.005Z,69.80
2019-01-03T18:43:59.716Z,69.70
2019-01-03T18:46:29.568Z,69.70
2019-01-03T18:48:59.384Z,69.80
2019-01-03T18:51:29.074Z,69.90
2019-01-03T18:53:58.658Z,69.80
2019-01-03T18:56:28.289Z,69.70
2019-01-03T18:58:58.908Z,69.70
2019-01-03T19:01:28.557Z,69.70
2019-01-03T19:03:58.919Z,69.80
2019-01-03T19:06:28.497Z,69.80
2019-01-03T19:08:58.068Z,69.70
2019-01-03T19:11:27.781Z,70.40
2019-01-03T19:13:57.357Z,69.80
2019-01-03T19:16:27.135Z,69.80
2019-01-03T19:18:56.907Z,69.70
2019-01-03T19:21:28.261Z,69.70
2019-01-03T19:23:58.046Z,69.60
2019-01-03T19:26:27.680Z,69.50
2019-01-03T19:28:57.429Z,69.50
2019-01-03T19:31:27.018Z,69.40
2019-01-03T19:33:56.601Z,69.30
2019-01-03T19:36:26.209Z,69.50
2019-01-03T19:38:55.998Z,69.50
2019-01-03T19:41:25.685Z,69.60
2019-01-03T19:43:55.270Z,69.50
2019-01-03T19:46:24.847Z,69.10
2019-01-03T19:48:54.606Z,69.00
2019-01-03T19:51:24.554Z,68.90
2019-01-03T19:53:54.434Z,68.90
2019-01-03T19:56:24.044Z,68.90
2019-01-03T19:58:53.659Z,69.00
2019-01-03T20:01:23.352Z,69.10
2019-01-03T20:03:53.063Z,69.10
2019-01-03T20:06:22.839Z,69.00
2019-01-03T20:08:52.453Z,69.10
2019-01-03T20:11:22.389Z,69.10
2019-01-03T20:13:52.015Z,69.10
2019-01-03T20:16:21.594Z,69.20
2019-01-03T20:18:51.528Z,69.20
2019-01-03T20:21:21.111Z,68.90
2019-01-03T20:23:50.698Z,68.80
2019-01-03T20:26:20.344Z,68.90
2019-01-03T20:28:49.960Z,69.10
2019-01-03T20:31:19.768Z,69.10
2019-01-03T20:33:50.409Z,69.10
2019-01-03T20:36:20.033Z,69.10
2019-01-03T20:38:50.577Z,69.10
2019-01-03T20:41:20.202Z,69.10
2019-01-03T20:43:50.055Z,69.10
2019-01-03T20:46:20.601Z,69.20
2019-01-03T20:48:50.422Z,69.40
2019-01-03T20:51:19.989Z,69.70
2019-01-03T20:53:49.585Z,69.70
2019-01-03T20:56:19.558Z,69.70
2019-01-03T20:58:49.171Z,69.90
2019-01-03T21:01:18.744Z,69.70
2019-01-03T21:03:48.439Z,69.60
2019-01-03T21:06:18.093Z,69.60
2019-01-03T21:08:48.718Z,69.50
2019-01-03T21:11:18.489Z,69.80
2019-01-03T21:13:48.076Z,69.80
2019-01-03T21:16:17.986Z,69.70
2019-01-03T21:18:47.605Z,69.70
2019-01-03T21:21:17.194Z,69.90
2019-01-03T21:23:47.692Z,69.80
2019-01-03T21:26:17.285Z,70.00
2019-01-03T21:28:46.986Z,70.00
2019-01-03T21:31:16.675Z,70.00
2019-01-03T21:33:46.245Z,70.10
2019-01-03T21:36:15.852Z,70.30
2019-01-03T21:38:48.917Z,70.50
2019-01-03T21:41:18.627Z,70.60
2019-01-03T21:43:48.196Z,70.60
2019-01-03T21:46:18.036Z,70.80
2019-01-03T21:48:52.990Z,70.80
2019-01-03T21:51:18.947Z,70.80
2019-01-03T21:53:48.620Z,71.00
2019-01-03T21:56:18.892Z,71.10
2019-01-03T21:58:48.561Z,71.00
2019-01-03T22:01:18.509Z,71.00
2019-01-03T22:03:48.101Z,71.00
2019-01-03T22:06:17.764Z,70.80
2019-01-03T22:08:47.484Z,71.10
2019-01-03T22:11:17.077Z,71.00
2019-01-03T22:13:46.758Z,71.00
2019-01-03T22:16:16.617Z,71.10
2019-01-03T22:18:46.431Z,71.10
2019-01-03T22:21:16.041Z,70.90
2019-01-03T22:23:45.626Z,71.00
2019-01-03T22:26:15.249Z,70.80
2019-01-03T22:28:44.828Z,71.00
2019-01-03T22:31:14.402Z,70.90
2019-01-03T22:33:44.108Z,71.00
2019-01-03T22:36:13.730Z,71.00
2019-01-03T22:38:43.521Z,70.90
2019-01-03T22:41:13.150Z,71.10
2019-01-03T22:43:42.726Z,71.00
2019-01-03T22:46:12.352Z,71.00
2019-01-03T22:48:42.059Z,71.00
2019-01-03T22:51:11.763Z,71.00
2019-01-03T22:53:41.389Z,71.00
2019-01-03T22:56:11.709Z,71.00
2019-01-03T22:58:41.451Z,71.00
2019-01-03T23:01:11.229Z,71.00
2019-01-03T23:03:41.537Z,70.90
2019-01-03T23:06:11.128Z,71.10
2019-01-03T23:08:40.711Z,71.10
2019-01-03T23:11:10.494Z,71.20
2019-01-03T23:13:40.080Z,71.30
2019-01-03T23:16:09.706Z,71.40
2019-01-03T23:18:39.558Z,71.50
2019-01-03T23:21:09.305Z,71.60
2019-01-03T23:23:39.082Z,71.70
2019-01-03T23:26:08.694Z,71.90
2019-01-03T23:28:38.398Z,71.90
2019-01-03T23:31:08.045Z,71.90
2019-01-03T23:33:37.635Z,72.10
2019-01-03T23:36:07.222Z,72.10
2019-01-03T23:38:37.072Z,72.20
2019-01-03T23:41:06.661Z,72.20
2019-01-03T23:43:37.217Z,72.30
2019-01-03T23:46:06.835Z,72.50
2019-01-03T23:48:36.563Z,72.50
2019-01-03T23:51:06.325Z,72.50
2019-01-03T23:53:35.940Z,72.70
2019-01-03T23:56:05.597Z,72.60
2019-01-03T23:58:35.208Z,72.60
